• Join FlightAware (Why Join?)
  • Login
  • US Flag 
12:25AM EST


 

Airport Tracker/Info


-or-


 

Live Flight TrackerFlight Track Log ✈ ASQ5685 ✈ 12-Dec-2013 ✈ KATL - KIAD

Flight Track Log - Related Links

Times and Time Zones

All times are in EST time to prevent confusion due to time zone crossing. See the ASQ5685 flight status page for this flight to view local times or setup timezone preferences in your user account.

Time Position Orientation Groundspeed Altitude Reporting Facility
EST Latitude Longitude Course Direction KTS MPH feet Rate Location/Type
09:51AM 33.6333 -84.4667 69° East 169 194 2,700  Level Atlanta TRACON
09:52AM 33.6000 -84.5333 239° Southwest 247 284 4,500 2,452 Climbing Atlanta TRACON
09:53AM 33.5500 -84.5833 220° Southwest 286 329 7,400 2,578 Climbing Atlanta TRACON
09:54AM 33.9552 -84.0488 53° Northeast  Level Estimated
09:54AM 33.4614 -84.5592 167° South 300 345 10,000  Level Atlanta Center
09:55AM 33.9960 -83.9230 69° East  Level FlightAware Approximate
09:55AM 33.4533 -84.4422 95° East 271 312 11,400  Level Atlanta Center
09:56AM 34.0367 -83.7971 69° East  Level FlightAware Approximate
09:56AM 33.4536 -84.3128 90° East 341 392 13,100  Level Atlanta Center
09:57AM 33.5206 -84.2306 46° Northeast 310 357 14,900 1,850 Climbing Atlanta Center
09:58AM 33.6083 -84.1761 27° Northeast 304 350 16,800 1,600 Climbing Atlanta Center
09:59AM 33.6942 -84.1186 29° Northeast 329 379 18,100 900 Climbing Atlanta Center
10:00AM 33.7692 -84.0289 45° Northeast 359 413 18,600 900 Climbing Atlanta Center
10:01AM 33.8297 -83.9114 58° Northeast 395 455 19,900 1,200 Climbing Atlanta Center
10:02AM 33.8878 -83.7911 60° Northeast 411 473 21,000 550 Climbing Atlanta Center
10:03AM 33.9564 -83.6706 56° Northeast 418 481 21,000  Level Atlanta Center
10:04AM 34.0353 -83.5475 52° Northeast 441 507 21,000  Level Atlanta Center
10:05AM 34.1142 -83.4242 52° Northeast 460 529 21,000  Level Atlanta Center
10:06AM 34.1928 -83.2953 54° Northeast 466 536 21,000 450 Level Atlanta Center
10:07AM 34.2692 -83.1742 53° Northeast 460 529 21,900 1,050 Climbing Atlanta Center
10:08AM 34.3372 -83.0628 53° Northeast 455 524 23,100 1,350 Climbing Atlanta Center
10:09AM 34.4114 -82.9461 52° Northeast 450 518 24,600 1,250 Climbing Atlanta Center
10:10AM 34.4792 -82.8292 55° Northeast 436 502 25,600 1,050 Climbing Atlanta Center
10:11AM 34.5531 -82.7147 52° Northeast 431 496 26,700 900 Climbing Atlanta Center
10:12AM 34.6247 -82.5950 54° Northeast 431 496 27,400 650 Climbing Atlanta Center
10:13AM 34.6986 -82.4800 52° Northeast 431 496 28,000 600 Climbing Atlanta Center
10:14AM 34.7700 -82.3597 54° Northeast 437 503 28,600 500 Climbing Atlanta Center
10:15AM 34.8433 -82.2419 53° Northeast 437 503 29,000 200 Climbing Atlanta Center
10:16AM 34.9269 -82.1108 52° Northeast 437 503 29,000  Level Atlanta Center
10:17AM 34.9981 -81.9900 54° Northeast 437 503 29,000  Level Atlanta Center
10:18AM 35.0669 -81.8717 55° Northeast 437 503 29,000  Level Atlanta Center
10:19AM 35.1336 -81.7456 57° Northeast 442 509 29,000  Level Atlanta Center
10:20AM 35.1958 -81.6242 58° Northeast 429 494 29,000  Level Atlanta Center
10:21AM 35.2581 -81.5028 58° Northeast 424 488 29,000  Level Atlanta Center
10:22AM 35.3203 -81.3839 57° Northeast 418 481 29,000  Level Atlanta Center
10:23AM 35.3844 -81.2622 57° Northeast 418 481 29,000  Level Atlanta Center
10:24AM 35.4461 -81.1403 58° Northeast 418 481 29,000  Level Atlanta Center
10:25AM 35.5039 -81.0283 58° Northeast 424 488 29,000  Level Atlanta Center
10:26AM 35.5717 -80.9008 57° Northeast 424 488 29,000 250 Level Atlanta Center
10:27AM 35.6394 -80.7731 57° Northeast 435 501 29,500 500 Climbing Atlanta Center
10:28AM 35.7067 -80.6400 58° Northeast 444 511 30,000 500 Climbing Atlanta Center
10:29AM 35.7758 -80.5064 57° Northeast 455 524 30,500 500 Climbing Atlanta Center
10:30AM 35.8469 -80.3678 58° Northeast 466 536 31,000 250 Climbing Atlanta Center
10:31AM 35.9194 -80.2156 60° Northeast 466 536 31,000  Level Atlanta Center
10:32AM 35.9825 -80.0972 57° Northeast 460 529 31,000  Level Atlanta Center
10:34AM 36.1333 -79.8225 56° Northeast 442 509 31,000  Level Washington Center
10:35AM 36.2069 -79.6928 55° Northeast 454 522 31,000  Level Washington Center
10:36AM 36.2689 -79.5825 55° Northeast 454 522 31,000  Level Washington Center
10:37AM 36.3508 -79.4425 54° Northeast 449 517 31,000 -458 Level Washington Center
10:38AM 36.4150 -79.3217 57° Northeast 455 524 30,100 -1,109 Descending Washington Center
10:39AM 36.4903 -79.1883 55° Northeast 460 529 28,800 -1,377 Descending Washington Center
10:40AM 36.5650 -79.0547 55° Northeast 449 517 27,300 -1,613 Descending Washington Center
10:41AM 36.6308 -78.9386 55° Northeast 433 498 25,600 -1,160 Descending Washington Center
10:42AM 36.6947 -78.8194 56° Northeast 411 473 25,000 -298 Descending Washington Center
10:43AM 36.7583 -78.7003 56° Northeast 411 473 25,000  Level Washington Center
10:44AM 36.8261 -78.5811 55° Northeast 411 473 25,000  Level Washington Center
10:45AM 36.8872 -78.4717 55° Northeast 411 473 25,000 -151 Level Washington Center
10:46AM 36.9569 -78.3419 56° Northeast 421 484 24,700 -661 Descending Washington Center
10:47AM 37.0286 -78.2169 54° Northeast 436 502 23,700 -984 Descending Washington Center
10:48AM 37.1219 -78.1444 32° Northeast 408 470 22,700 -836 Descending Washington Center
10:49AM 37.2153 -78.0719 32° Northeast 395 455 22,000 -356 Descending Washington Center
10:50AM 37.3064 -78.0019 31° Northeast 384 442 22,000  Level Washington Center
10:51AM 37.3956 -77.9314 32° Northeast 379 436 22,000  Level Washington Center
10:52AM 37.4864 -77.8611 32° Northeast 379 436 22,000 -50 Level Washington Center
10:53AM 37.5794 -77.7983 28° Northeast 374 430 21,900 -1,109 Descending Washington Center
10:54AM 37.6806 -77.7383 25° Northeast 379 436 19,800 -2,016 Descending Washington Center
10:55AM 37.7775 -77.6858 23° Northeast 379 436 17,800 -1,765 Descending Washington Center
10:56AM 37.8703 -77.6306 25° Northeast 374 430 16,300 -1,780 Descending Washington Center
10:57AM 37.9608 -77.5750 26° Northeast 362 417 14,300 -2,033 Descending Washington Center
10:58AM 38.0575 -77.5222 23° Northeast 354 407 12,200 -1,820 Descending Washington Center
10:59AM 38.1419 -77.4714 25° Northeast 341 392 10,600 -1,109 Descending Washington Center
11:00AM 38.2133 -77.4283 25° Northeast 310 357 10,000 -655 Descending Washington Center
11:01AM 38.2850 -77.3853 25° Northeast 289 333 9,300 -984 Descending Washington Center
11:02AM 38.3542 -77.3631 14° North 270 311 8,000 -1,261 Descending Washington Center
11:03AM 38.4139 -77.4069 330° Northwest 226 260 6,800 -1,160 Descending Washington Center
11:04AM 38.4717 -77.4453 333° Northwest 226 260 5,700 -1,082 Descending Washington Center
11:05AM 38.5364 -77.4469 359° North 226 260 4,600 -1,041 Descending Washington Center
11:06AM 38.6031 -77.4433 North 226 260 3,600 -960 Descending Washington Center
11:07AM 38.6500 -77.4333 North 241 277 3,000 -360 Descending Potomac TRACON
11:08AM 38.7167 -77.4333 360° North 241 277 3,000  Level Potomac TRACON
11:09AM 38.7833 -77.4333 360° North 226 260 3,000 -397 Level Potomac TRACON
11:10AM 38.8333 -77.4333 360° North 187 215 2,200 -842 Descending Potomac TRACON
11:11AM 38.8833 -77.4333 360° North 143 165 1,400 -835 Descending Potomac TRACON
11:12AM 38.9167 -77.4333 360° North 133 153 600 -787 Descending Potomac TRACON